createdAt,value
2022-09-29T00:01:02.242Z,98087.38
2022-09-29T00:03:29.037Z,98086.81
2022-09-29T00:05:56.450Z,98090.41
2022-09-29T00:08:25.224Z,98082.47
2022-09-29T00:10:51.675Z,98074.19
2022-09-29T00:13:18.455Z,98078.75
2022-09-29T00:15:45.667Z,98080.94
2022-09-29T00:18:14.666Z,98078.47
2022-09-29T00:20:41.429Z,98089.09
2022-09-29T00:23:07.795Z,98085.63
2022-09-29T00:25:34.524Z,98084.66
2022-09-29T00:28:01.052Z,98083.56
2022-09-29T00:30:27.869Z,98097.16
2022-09-29T00:32:54.217Z,98087.88
2022-09-29T00:35:20.589Z,98090.13
2022-09-29T00:37:47.122Z,98075.22
2022-09-29T00:40:13.692Z,98090.66
2022-09-29T00:42:40.635Z,98083.97
2022-09-29T00:45:20.973Z,98084.53
2022-09-29T00:48:01.397Z,98089.63
2022-09-29T00:50:51.986Z,98086.72
2022-09-29T00:53:22.160Z,98091.56
2022-09-29T00:55:53.650Z,98089.81
2022-09-29T00:58:32.590Z,98089.22
2022-09-29T01:00:59.713Z,98077.63
2022-09-29T01:03:30.662Z,98085.94
2022-09-29T01:06:03.525Z,98087.91
2022-09-29T01:08:39.557Z,98077.13
2022-09-29T01:11:06.484Z,98082.91
2022-09-29T01:13:34.394Z,98079.59
2022-09-29T01:16:01.070Z,98079.59
2022-09-29T01:18:27.665Z,98085.97
2022-09-29T01:21:10.255Z,98081.13
2022-09-29T01:23:55.330Z,98083.50
2022-09-29T01:26:33.971Z,98084.19
2022-09-29T01:29:17.559Z,98078.78
2022-09-29T01:32:15.784Z,98077.41
2022-09-29T01:35:04.398Z,98084.06
2022-09-29T01:37:54.025Z,98083.66
2022-09-29T01:40:34.741Z,98082.53
2022-09-29T01:43:07.931Z,98089.31
2022-09-29T01:45:43.332Z,98082.72
2022-09-29T01:48:15.544Z,98084.22
2022-09-29T01:50:50.040Z,98089.06
2022-09-29T01:53:25.054Z,98081.06
2022-09-29T01:55:55.952Z,98082.88
2022-09-29T01:58:29.087Z,98089.50
2022-09-29T02:01:00.202Z,98092.97
2022-09-29T02:03:35.670Z,98086.72
2022-09-29T02:06:08.885Z,98097.94
2022-09-29T02:08:42.592Z,98100.44
2022-09-29T02:11:12.834Z,98091.88
2022-09-29T02:14:07.642Z,98096.84
2022-09-29T02:16:40.490Z,98087.97
2022-09-29T02:19:18.323Z,98089.38
2022-09-29T02:21:45.059Z,98098.78
2022-09-29T02:24:12.513Z,98100.97
2022-09-29T02:26:41.585Z,98105.28
2022-09-29T02:29:08.809Z,98095.28
2022-09-29T02:31:37.066Z,98100.44
2022-09-29T02:34:05.981Z,98093.94
2022-09-29T02:36:44.493Z,98100.13
2022-09-29T02:39:29.554Z,98109.41
2022-09-29T02:42:17.066Z,98107.63
2022-09-29T02:45:02.461Z,98109.38
2022-09-29T02:47:43.556Z,98091.41
2022-09-29T02:50:31.635Z,98103.72
2022-09-29T02:53:10.145Z,98108.00
2022-09-29T02:55:43.511Z,98103.88
2022-09-29T02:58:20.829Z,98111.44
2022-09-29T03:00:47.976Z,98104.13
2022-09-29T03:03:14.366Z,98109.38
2022-09-29T03:05:40.753Z,98100.38
2022-09-29T03:08:07.097Z,98109.81
2022-09-29T03:10:33.503Z,98105.94
2022-09-29T03:12:59.904Z,98096.66
2022-09-29T03:15:26.337Z,98103.56
2022-09-29T03:17:57.087Z,98096.91
2022-09-29T03:20:24.086Z,98098.69
2022-09-29T03:22:51.803Z,98098.66
2022-09-29T03:25:18.967Z,98099.78
2022-09-29T03:27:46.259Z,98110.28
2022-09-29T03:30:13.464Z,98097.28
2022-09-29T03:32:39.832Z,98098.56
2022-09-29T03:35:06.928Z,98090.81
2022-09-29T03:37:33.294Z,98094.38
2022-09-29T03:39:59.924Z,98091.19
2022-09-29T03:42:28.174Z,98093.41
2022-09-29T03:44:54.740Z,98102.53
2022-09-29T03:47:21.540Z,98112.09
2022-09-29T03:49:47.953Z,98102.41
2022-09-29T03:52:14.390Z,98115.22
2022-09-29T03:54:40.785Z,98118.59
2022-09-29T03:57:07.148Z,98117.19
2022-09-29T03:59:33.580Z,98115.00
2022-09-29T04:01:59.986Z,98118.28
2022-09-29T04:04:26.517Z,98115.66
2022-09-29T04:06:52.870Z,98125.50
2022-09-29T04:09:19.363Z,98126.03
2022-09-29T04:11:45.833Z,98138.34
2022-09-29T04:14:12.330Z,98135.13
2022-09-29T04:16:38.752Z,98142.28
2022-09-29T04:19:05.244Z,98140.63
2022-09-29T04:21:31.648Z,98142.13
2022-09-29T04:23:58.043Z,98135.28
2022-09-29T04:26:24.404Z,98143.34
2022-09-29T04:28:50.867Z,98137.19
2022-09-29T04:31:17.248Z,98147.28
2022-09-29T04:33:43.673Z,98135.22
2022-09-29T04:36:10.040Z,98147.31
2022-09-29T04:38:36.500Z,98150.84
2022-09-29T04:41:03.020Z,98149.91
2022-09-29T04:43:29.523Z,98153.75
2022-09-29T04:46:06.825Z,98149.31
2022-09-29T04:48:35.965Z,98157.94
2022-09-29T04:51:03.515Z,98149.09
2022-09-29T04:53:30.236Z,98160.13
2022-09-29T04:55:56.665Z,98163.91
2022-09-29T04:58:23.036Z,98160.44
2022-09-29T05:00:49.473Z,98147.31
2022-09-29T05:03:15.862Z,98146.75
2022-09-29T05:05:42.282Z,98157.94
2022-09-29T05:08:08.790Z,98160.25
2022-09-29T05:10:35.259Z,98162.44
2022-09-29T05:13:01.634Z,98163.59
2022-09-29T05:15:28.034Z,98168.28
2022-09-29T05:17:54.434Z,98164.16
2022-09-29T05:20:20.869Z,98169.41
2022-09-29T05:22:47.226Z,98174.56
2022-09-29T05:25:13.587Z,98175.81
2022-09-29T05:27:39.953Z,98172.16
2022-09-29T05:30:06.944Z,98161.38
2022-09-29T05:32:33.301Z,98165.09
2022-09-29T05:35:00.028Z,98177.28
2022-09-29T05:37:26.457Z,98183.88
2022-09-29T05:39:52.938Z,98177.22
2022-09-29T05:42:20.107Z,98180.84
2022-09-29T05:44:46.501Z,98170.03
2022-09-29T05:47:12.911Z,98175.28
2022-09-29T05:49:39.346Z,98165.19
2022-09-29T05:52:05.757Z,98180.00
2022-09-29T05:54:32.144Z,98183.75
2022-09-29T05:56:58.608Z,98182.53
2022-09-29T05:59:24.972Z,98188.69
2022-09-29T06:01:51.455Z,98186.34
2022-09-29T06:04:17.955Z,98186.50
2022-09-29T06:06:44.475Z,98192.63
2022-09-29T06:09:11.117Z,98194.69
2022-09-29T06:11:37.494Z,98190.00
2022-09-29T06:14:04.016Z,98185.28
2022-09-29T06:16:32.270Z,98194.03
2022-09-29T06:18:59.862Z,98193.81
2022-09-29T06:21:27.711Z,98190.34
2022-09-29T06:23:55.738Z,98193.72
2022-09-29T06:26:24.735Z,98198.38
2022-09-29T06:28:52.353Z,98203.09
2022-09-29T06:31:21.048Z,98194.53
2022-09-29T06:33:47.848Z,98199.69
2022-09-29T06:37:00.605Z,98196.84
2022-09-29T06:39:27.383Z,98196.16
2022-09-29T06:41:56.037Z,98209.69
2022-09-29T06:44:24.508Z,98209.97
2022-09-29T06:46:51.740Z,98217.22
2022-09-29T06:49:19.332Z,98225.19
2022-09-29T06:51:46.925Z,98216.66
2022-09-29T06:54:15.722Z,98217.47
2022-09-29T06:56:42.700Z,98219.19
2022-09-29T06:59:09.223Z,98213.25
2022-09-29T07:01:35.621Z,98216.19
2022-09-29T07:04:02.570Z,98212.75
2022-09-29T07:06:30.280Z,98215.91
2022-09-29T07:08:58.704Z,98210.13
2022-09-29T07:11:26.284Z,98217.84
2022-09-29T07:13:54.772Z,98209.31
2022-09-29T07:16:23.748Z,98213.91
2022-09-29T07:18:51.064Z,98226.00
2022-09-29T07:21:18.523Z,98217.75
2022-09-29T07:23:46.487Z,98208.38
2022-09-29T07:26:13.577Z,98229.00
2022-09-29T07:28:40.195Z,98228.44
2022-09-29T07:31:24.822Z,98229.38
2022-09-29T07:33:51.612Z,98226.44
2022-09-29T07:36:20.021Z,98243.16
2022-09-29T07:38:48.418Z,98233.56
2022-09-29T07:41:15.629Z,98241.53
2022-09-29T07:43:42.144Z,98239.88
2022-09-29T07:46:09.215Z,98239.56
2022-09-29T07:48:36.995Z,98231.69
2022-09-29T07:51:11.961Z,98243.97
2022-09-29T07:53:39.134Z,98241.88
2022-09-29T07:56:07.942Z,98233.81
2022-09-29T07:58:35.251Z,98249.34
2022-09-29T08:01:05.141Z,98242.19
2022-09-29T08:03:32.743Z,98243.25
2022-09-29T08:05:59.341Z,98235.88
2022-09-29T08:08:26.570Z,98239.44
2022-09-29T08:10:53.984Z,98252.28
2022-09-29T08:13:20.839Z,98254.03
2022-09-29T08:15:47.216Z,98246.31
2022-09-29T08:18:13.619Z,98252.50
2022-09-29T08:20:40.036Z,98256.75
2022-09-29T08:23:06.883Z,98260.66
2022-09-29T08:25:33.984Z,98257.47
2022-09-29T08:28:00.637Z,98246.63
2022-09-29T08:30:27.121Z,98255.16
2022-09-29T08:32:54.741Z,98266.25
2022-09-29T08:35:21.257Z,98275.72
2022-09-29T08:37:48.752Z,98274.41
2022-09-29T08:40:16.388Z,98273.34
2022-09-29T08:42:57.770Z,98264.34
2022-09-29T08:45:29.927Z,98274.47
2022-09-29T08:48:16.098Z,98280.53
2022-09-29T08:50:56.287Z,98285.19
2022-09-29T08:53:28.982Z,98282.19
2022-09-29T08:56:07.896Z,98290.19
2022-09-29T08:58:34.477Z,98292.50
2022-09-29T09:01:09.460Z,98294.63
2022-09-29T09:04:02.689Z,98283.00
2022-09-29T09:06:56.025Z,98290.06
2022-09-29T09:09:48.536Z,98293.47
2022-09-29T09:12:28.834Z,98293.41
2022-09-29T09:15:08.596Z,98289.97
2022-09-29T09:18:09.009Z,98286.16
2022-09-29T09:20:52.711Z,98293.13
2022-09-29T09:23:49.981Z,98285.75
2022-09-29T09:26:16.362Z,98282.84
2022-09-29T09:28:53.281Z,98291.69
2022-09-29T09:31:35.446Z,98288.94
2022-09-29T09:34:17.415Z,98285.09
2022-09-29T09:37:05.998Z,98287.44
2022-09-29T09:39:36.391Z,98287.84
2022-09-29T09:42:13.577Z,98276.78
2022-09-29T09:44:45.252Z,98293.81
2022-09-29T09:47:20.722Z,98298.09
2022-09-29T09:49:52.829Z,98292.69
2022-09-29T09:52:48.720Z,98286.22
2022-09-29T09:55:18.140Z,98300.75
2022-09-29T09:58:15.282Z,98296.75
2022-09-29T10:01:06.202Z,98288.03
2022-09-29T10:03:33.244Z,98300.59
2022-09-29T10:06:00.111Z,98286.78
2022-09-29T10:08:29.437Z,98286.25
2022-09-29T10:10:59.338Z,98299.94
2022-09-29T10:13:31.167Z,98290.50
2022-09-29T10:16:15.321Z,98291.16
2022-09-29T10:18:52.459Z,98297.53
2022-09-29T10:21:41.878Z,98301.56
2022-09-29T10:24:28.073Z,98301.69
2022-09-29T10:26:57.969Z,98300.28
2022-09-29T10:29:41.368Z,98297.22
2022-09-29T10:32:24.393Z,98302.75
2022-09-29T10:35:01.008Z,98305.53
2022-09-29T10:37:38.799Z,98301.59
2022-09-29T10:40:07.949Z,98303.56
2022-09-29T10:42:39.365Z,98301.38
2022-09-29T10:45:11.957Z,98300.81
2022-09-29T10:47:38.706Z,98298.69
2022-09-29T10:50:23.443Z,98299.34
2022-09-29T10:52:52.940Z,98292.63
2022-09-29T10:55:34.180Z,98308.41
2022-09-29T10:58:44.378Z,98305.28
2022-09-29T11:01:20.398Z,98299.56
2022-09-29T11:03:54.524Z,98302.09
2022-09-29T11:06:31.653Z,98309.41
2022-09-29T11:09:04.243Z,98311.56
2022-09-29T11:11:37.066Z,98309.09
2022-09-29T11:14:03.785Z,98303.09
2022-09-29T11:16:35.859Z,98307.72
2022-09-29T11:19:14.419Z,98310.44
2022-09-29T11:21:53.047Z,98310.44
2022-09-29T11:24:38.431Z,98303.44
2022-09-29T11:27:19.776Z,98310.38
2022-09-29T11:29:50.293Z,98309.19
2022-09-29T11:32:50.490Z,98305.41
2022-09-29T11:35:36.548Z,98311.69
2022-09-29T11:38:16.795Z,98311.69
2022-09-29T11:41:16.491Z,98306.06
2022-09-29T11:43:55.931Z,98311.91
2022-09-29T11:46:38.036Z,98306.16
2022-09-29T11:49:38.432Z,98307.88
2022-09-29T11:52:38.970Z,98311.25
2022-09-29T11:55:36.380Z,98315.44
2022-09-29T11:58:11.925Z,98312.00
2022-09-29T12:00:58.261Z,98310.69
2022-09-29T12:03:30.946Z,98299.00
2022-09-29T12:06:25.518Z,98304.13
2022-09-29T12:09:18.163Z,98304.16
2022-09-29T12:12:05.238Z,98309.13
2022-09-29T12:14:41.413Z,98296.44
2022-09-29T12:17:13.636Z,98300.06
2022-09-29T12:19:43.066Z,98298.72
2022-09-29T12:22:15.012Z,98295.94
2022-09-29T12:24:47.362Z,98294.63
2022-09-29T12:27:23.552Z,98292.16
2022-09-29T12:29:55.613Z,98297.97
2022-09-29T12:32:31.741Z,98295.84
2022-09-29T12:35:10.167Z,98301.31
2022-09-29T12:37:50.216Z,98299.97
2022-09-29T12:40:33.272Z,98299.00
2022-09-29T12:43:19.907Z,98298.69
2022-09-29T12:45:56.297Z,98295.53
2022-09-29T12:48:47.638Z,98291.75
2022-09-29T12:51:33.890Z,98298.19
2022-09-29T12:54:12.544Z,98302.00
2022-09-29T12:57:06.014Z,98301.91
2022-09-29T12:59:41.534Z,98295.94
2022-09-29T13:02:23.329Z,98299.44
2022-09-29T13:05:07.500Z,98287.47
2022-09-29T13:07:51.615Z,98288.09
2022-09-29T13:10:36.816Z,98292.88
2022-09-29T13:14:03.663Z,98282.91
2022-09-29T13:16:48.156Z,98283.41
2022-09-29T13:19:56.904Z,98286.09
2022-09-29T13:23:15.187Z,98286.13
2022-09-29T13:25:47.294Z,98275.22
2022-09-29T13:28:34.705Z,98277.22
2022-09-29T13:31:05.926Z,98286.88
2022-09-29T13:33:34.273Z,98281.88
2022-09-29T13:36:01.653Z,98273.94
2022-09-29T13:38:36.808Z,98287.69
2022-09-29T13:41:17.058Z,98283.53
2022-09-29T13:43:49.819Z,98279.88
2022-09-29T13:46:31.316Z,98284.66
2022-09-29T13:49:12.801Z,98286.16
2022-09-29T13:51:45.438Z,98295.91
2022-09-29T13:54:32.744Z,98295.41
2022-09-29T13:57:06.939Z,98305.66
2022-09-29T13:59:33.588Z,98291.09
2022-09-29T14:02:00.484Z,98307.66
2022-09-29T14:04:50.729Z,98301.69
2022-09-29T14:07:49.338Z,98301.69
2022-09-29T14:10:24.383Z,98305.63
2022-09-29T14:13:05.099Z,98309.94
2022-09-29T14:15:40.004Z,98299.16
2022-09-29T14:18:23.460Z,98312.09
2022-09-29T14:21:05.613Z,98313.88
2022-09-29T14:23:44.208Z,98298.69
2022-09-29T14:26:46.061Z,98311.09
2022-09-29T14:29:29.817Z,98301.00
2022-09-29T14:31:59.386Z,98305.28
2022-09-29T14:34:33.481Z,98316.88
2022-09-29T14:37:01.004Z,98314.69
2022-09-29T14:39:29.393Z,98335.06
2022-09-29T14:41:56.377Z,98326.13
2022-09-29T14:44:55.958Z,98327.47
2022-09-29T14:47:54.528Z,98327.78
2022-09-29T14:51:31.816Z,98326.78
2022-09-29T14:54:14.724Z,98324.47
2022-09-29T14:56:44.125Z,98332.09
2022-09-29T14:59:45.170Z,98336.72
2022-09-29T15:02:22.702Z,98340.34
2022-09-29T15:04:49.674Z,98328.41
2022-09-29T15:07:21.013Z,98338.84
2022-09-29T15:09:58.821Z,98341.81
2022-09-29T15:12:31.867Z,98338.31
2022-09-29T15:15:01.355Z,98351.72
2022-09-29T15:17:55.280Z,98343.63
2022-09-29T15:20:33.804Z,98344.63
2022-09-29T15:23:29.658Z,98339.34
2022-09-29T15:28:37.657Z,98337.34
2022-09-29T15:31:07.019Z,98339.34
2022-09-29T15:33:38.829Z,98349.75
2022-09-29T15:36:16.949Z,98348.78
2022-09-29T15:38:43.669Z,98345.44
2022-09-29T15:41:13.012Z,98347.09
2022-09-29T15:44:15.682Z,98360.03
2022-09-29T15:46:51.421Z,98367.13
2022-09-29T15:49:21.174Z,98364.66
2022-09-29T15:52:06.793Z,98363.81
2022-09-29T15:54:39.532Z,98363.00
2022-09-29T15:57:25.651Z,98369.28
2022-09-29T15:59:55.626Z,98380.03
2022-09-29T16:02:28.146Z,98385.31
2022-09-29T16:04:58.433Z,98379.34
2022-09-29T16:07:31.493Z,98387.78
2022-09-29T16:10:02.371Z,98395.72
2022-09-29T16:12:34.703Z,98394.25
2022-09-29T16:15:01.265Z,98400.34
2022-09-29T16:17:27.768Z,98403.16
2022-09-29T16:19:54.253Z,98406.81
2022-09-29T16:22:25.786Z,98411.41
2022-09-29T16:25:08.964Z,98416.03
2022-09-29T16:27:45.397Z,98415.34
2022-09-29T16:30:29.866Z,98420.13
2022-09-29T16:33:20.704Z,98422.41
2022-09-29T16:36:13.554Z,98421.75
2022-09-29T16:38:44.715Z,98422.88
2022-09-29T16:41:36.587Z,98422.53
2022-09-29T16:44:22.651Z,98435.75
2022-09-29T16:46:53.799Z,98436.75
2022-09-29T16:49:33.274Z,98437.22
2022-09-29T16:52:14.099Z,98447.94
2022-09-29T16:54:43.734Z,98445.28
2022-09-29T16:57:30.286Z,98446.28
2022-09-29T17:00:06.705Z,98453.84
2022-09-29T17:02:34.020Z,98453.47
2022-09-29T17:05:04.155Z,98458.94
2022-09-29T17:07:31.316Z,98456.41
2022-09-29T17:10:00.965Z,98463.31
2022-09-29T17:12:29.614Z,98466.94
2022-09-29T17:14:57.093Z,98464.75
2022-09-29T17:17:28.456Z,98460.06
2022-09-29T17:19:59.015Z,98473.97
2022-09-29T17:22:34.500Z,98477.47
2022-09-29T17:25:01.346Z,98472.00
2022-09-29T17:27:47.446Z,98472.16
2022-09-29T17:30:25.224Z,98480.41
2022-09-29T17:32:56.976Z,98482.13
2022-09-29T17:35:36.521Z,98484.31
2022-09-29T17:38:04.047Z,98483.78
2022-09-29T17:40:34.802Z,98491.88
2022-09-29T17:43:01.768Z,98498.53
2022-09-29T17:45:29.986Z,98500.91
2022-09-29T17:47:56.597Z,98496.31
2022-09-29T17:50:26.068Z,98500.47
2022-09-29T17:52:53.374Z,98500.75
2022-09-29T17:55:22.778Z,98500.38
2022-09-29T17:57:50.517Z,98505.66
2022-09-29T18:00:21.872Z,98506.25
2022-09-29T18:02:50.346Z,98517.81
2022-09-29T18:05:22.401Z,98514.78
2022-09-29T18:07:50.406Z,98521.78
2022-09-29T18:10:27.701Z,98512.72
2022-09-29T18:12:54.758Z,98515.97
2022-09-29T18:15:21.999Z,98522.63
2022-09-29T18:17:48.485Z,98528.50
2022-09-29T18:20:20.790Z,98527.69
2022-09-29T18:22:48.174Z,98522.16
2022-09-29T18:25:17.648Z,98524.09
2022-09-29T18:27:46.300Z,98527.59
2022-09-29T18:30:20.231Z,98532.31
2022-09-29T18:32:50.415Z,98534.47
2022-09-29T18:35:20.722Z,98537.28
2022-09-29T18:37:47.871Z,98544.34
2022-09-29T18:40:14.471Z,98549.78
2022-09-29T18:42:45.515Z,98551.44
2022-09-29T18:45:22.813Z,98542.28
2022-09-29T18:47:51.877Z,98546.72
2022-09-29T18:50:21.008Z,98544.38
2022-09-29T18:52:48.585Z,98567.88
2022-09-29T18:55:17.757Z,98562.06
2022-09-29T18:57:45.450Z,98568.22
2022-09-29T19:00:17.277Z,98576.25
2022-09-29T19:02:45.542Z,98572.63
2022-09-29T19:05:16.805Z,98572.78
2022-09-29T19:07:47.681Z,98583.19
2022-09-29T19:10:16.256Z,98590.03
2022-09-29T19:12:48.202Z,98589.34
2022-09-29T19:15:16.368Z,98599.19
2022-09-29T19:17:44.608Z,98599.63
2022-09-29T19:20:13.058Z,98618.25
2022-09-29T19:22:42.518Z,98607.28
2022-09-29T19:25:15.116Z,98609.47
2022-09-29T19:27:42.902Z,98613.50
2022-09-29T19:30:11.309Z,98621.59
2022-09-29T19:32:38.140Z,98623.09
2022-09-29T19:35:07.018Z,98623.78
2022-09-29T19:37:33.593Z,98625.34
2022-09-29T19:40:00.159Z,98641.56
2022-09-29T19:42:26.840Z,98635.72
2022-09-29T19:44:53.253Z,98640.75
2022-09-29T19:47:19.911Z,98647.16
2022-09-29T19:49:46.356Z,98651.19
2022-09-29T19:52:12.990Z,98650.59
2022-09-29T19:54:40.103Z,98653.91
2022-09-29T19:57:09.080Z,98658.22
2022-09-29T19:59:37.762Z,98660.59
2022-09-29T20:02:06.258Z,98654.59
2022-09-29T20:04:35.441Z,98655.31
2022-09-29T20:07:02.990Z,98669.34
2022-09-29T20:09:29.708Z,98670.44
2022-09-29T20:11:56.179Z,98659.84
2022-09-29T20:14:23.662Z,98670.97
2022-09-29T20:16:52.450Z,98666.50
2022-09-29T20:19:21.004Z,98667.47
2022-09-29T20:21:51.191Z,98674.28
2022-09-29T20:24:20.193Z,98676.78
2022-09-29T20:26:48.001Z,98680.38
2022-09-29T20:29:18.051Z,98682.06
2022-09-29T20:31:45.696Z,98685.81
2022-09-29T20:34:13.794Z,98690.25
2022-09-29T20:36:40.280Z,98691.41
2022-09-29T20:39:06.673Z,98678.94
2022-09-29T20:41:33.598Z,98690.53
2022-09-29T20:44:00.325Z,98696.66
2022-09-29T20:46:27.981Z,98698.72
2022-09-29T20:48:57.162Z,98701.09
2022-09-29T20:51:25.497Z,98709.75
2022-09-29T20:53:54.874Z,98703.03
2022-09-29T20:56:22.276Z,98709.16
2022-09-29T20:58:50.654Z,98712.47
2022-09-29T21:01:23.159Z,98709.50
2022-09-29T21:03:51.141Z,98717.41
2022-09-29T21:06:22.061Z,98717.13
2022-09-29T21:08:49.052Z,98708.25
2022-09-29T21:11:15.997Z,98715.19
2022-09-29T21:13:46.241Z,98724.56
2022-09-29T21:16:12.877Z,98724.81
2022-09-29T21:18:39.252Z,98726.06
2022-09-29T21:21:08.232Z,98738.59
2022-09-29T21:23:36.940Z,98751.94
2022-09-29T21:26:11.831Z,98750.53
2022-09-29T21:28:38.383Z,98742.91
2022-09-29T21:31:06.090Z,98753.63
2022-09-29T21:33:34.936Z,98750.97
2022-09-29T21:36:03.723Z,98749.13
2022-09-29T21:38:31.339Z,98748.34
2022-09-29T21:41:34.326Z,98750.41
2022-09-29T21:44:08.881Z,98756.81
2022-09-29T21:46:35.791Z,98756.81
2022-09-29T21:49:05.140Z,98761.28
2022-09-29T21:51:40.766Z,98759.84
2022-09-29T21:54:14.661Z,98758.19
2022-09-29T21:56:42.635Z,98766.66
2022-09-29T21:59:10.433Z,98759.19
2022-09-29T22:01:39.781Z,98766.47
2022-09-29T22:04:06.744Z,98767.31
2022-09-29T22:06:35.017Z,98770.91
2022-09-29T22:09:02.162Z,98758.09
2022-09-29T22:11:30.813Z,98772.25
2022-09-29T22:13:59.725Z,98763.88
2022-09-29T22:16:29.809Z,98769.78
2022-09-29T22:19:22.529Z,98779.16
2022-09-29T22:21:45.298Z,98780.94
2022-09-29T22:24:12.009Z,98780.22
2022-09-29T22:26:39.721Z,98787.88
2022-09-29T22:29:06.137Z,98793.72
2022-09-29T22:31:33.489Z,98790.25
2022-09-29T22:34:02.378Z,98788.69
2022-09-29T22:36:31.559Z,98788.81
2022-09-29T22:38:58.050Z,98792.56
2022-09-29T22:41:24.907Z,98793.28
2022-09-29T22:43:56.029Z,98796.00
2022-09-29T22:46:24.364Z,98791.03
2022-09-29T22:48:50.963Z,98796.53
2022-09-29T22:51:18.273Z,98802.59
2022-09-29T22:53:44.653Z,98800.84
2022-09-29T22:56:19.881Z,98808.41
2022-09-29T22:58:46.776Z,98800.63
2022-09-29T23:01:15.505Z,98803.72
2022-09-29T23:03:44.173Z,98803.16
2022-09-29T23:06:11.485Z,98800.84
2022-09-29T23:08:38.462Z,98802.81
2022-09-29T23:11:07.618Z,98803.03
2022-09-29T23:13:36.816Z,98802.31
2022-09-29T23:16:09.601Z,98809.16
2022-09-29T23:18:43.591Z,98812.97
2022-09-29T23:21:10.940Z,98811.16
2022-09-29T23:23:37.580Z,98822.88
2022-09-29T23:26:04.092Z,98816.22
2022-09-29T23:28:30.445Z,98825.06
2022-09-29T23:31:02.923Z,98826.00
2022-09-29T23:33:29.324Z,98822.66
2022-09-29T23:35:55.684Z,98826.47
2022-09-29T23:38:40.686Z,98830.56
2022-09-29T23:41:07.985Z,98826.25
2022-09-29T23:43:34.349Z,98834.28
2022-09-29T23:46:00.724Z,98830.69
2022-09-29T23:48:27.310Z,98823.38
2022-09-29T23:50:54.050Z,98829.97
2022-09-29T23:53:20.408Z,98836.53
2022-09-29T23:55:46.811Z,98831.03
2022-09-29T23:58:13.233Z,98838.09
